sensor_id;sensor_type;location;lat;lon;timestamp;P1;durP1;ratioP1;P2;durP2;ratioP2
35602;SDS011;21725;50.836;4.368;2024-03-17T00:01:27;6.65;;;3.78;;
35602;SDS011;21725;50.836;4.368;2024-03-17T00:04:28;11.80;;;3.40;;
35602;SDS011;21725;50.836;4.368;2024-03-17T00:07:29;8.50;;;3.70;;
35602;SDS011;21725;50.836;4.368;2024-03-17T00:10:30;6.40;;;3.40;;
35602;SDS011;21725;50.836;4.368;2024-03-17T00:13:31;6.03;;;3.72;;
35602;SDS011;21725;50.836;4.368;2024-03-17T00:16:32;8.68;;;3.78;;
35602;SDS011;21725;50.836;4.368;2024-03-17T00:19:33;8.82;;;4.18;;
35602;SDS011;21725;50.836;4.368;2024-03-17T00:22:34;9.13;;;3.63;;
35602;SDS011;21725;50.836;4.368;2024-03-17T00:25:40;9.82;;;4.68;;
35602;SDS011;21725;50.836;4.368;2024-03-17T00:28:41;10.43;;;4.50;;
35602;SDS011;21725;50.836;4.368;2024-03-17T00:31:41;7.43;;;3.75;;
35602;SDS011;21725;50.836;4.368;2024-03-17T00:34:42;10.10;;;5.32;;
35602;SDS011;21725;50.836;4.368;2024-03-17T00:37:43;9.50;;;4.85;;
35602;SDS011;21725;50.836;4.368;2024-03-17T00:40:44;8.80;;;4.00;;
35602;SDS011;21725;50.836;4.368;2024-03-17T00:43:45;14.40;;;5.85;;
35602;SDS011;21725;50.836;4.368;2024-03-17T00:46:46;10.55;;;6.10;;
35602;SDS011;21725;50.836;4.368;2024-03-17T00:49:46;9.60;;;3.55;;
35602;SDS011;21725;50.836;4.368;2024-03-17T00:52:50;7.78;;;3.47;;
35602;SDS011;21725;50.836;4.368;2024-03-17T00:55:57;9.35;;;3.90;;
35602;SDS011;21725;50.836;4.368;2024-03-17T00:58:58;7.85;;;3.88;;
35602;SDS011;21725;50.836;4.368;2024-03-17T01:01:59;10.02;;;4.60;;
35602;SDS011;21725;50.836;4.368;2024-03-17T01:04:59;6.70;;;3.08;;
35602;SDS011;21725;50.836;4.368;2024-03-17T01:08:00;5.95;;;2.95;;
35602;SDS011;21725;50.836;4.368;2024-03-17T01:11:01;8.38;;;4.07;;
35602;SDS011;21725;50.836;4.368;2024-03-17T01:14:03;9.77;;;3.75;;
35602;SDS011;21725;50.836;4.368;2024-03-17T01:17:03;6.80;;;3.10;;
35602;SDS011;21725;50.836;4.368;2024-03-17T01:20:07;9.23;;;3.80;;
35602;SDS011;21725;50.836;4.368;2024-03-17T01:23:08;7.50;;;3.60;;
35602;SDS011;21725;50.836;4.368;2024-03-17T01:26:09;8.75;;;3.65;;
35602;SDS011;21725;50.836;4.368;2024-03-17T01:29:11;8.65;;;3.75;;
35602;SDS011;21725;50.836;4.368;2024-03-17T01:32:11;7.50;;;4.72;;
35602;SDS011;21725;50.836;4.368;2024-03-17T01:35:12;6.75;;;3.53;;
35602;SDS011;21725;50.836;4.368;2024-03-17T01:38:13;9.07;;;4.10;;
35602;SDS011;21725;50.836;4.368;2024-03-17T01:41:14;9.50;;;4.85;;
35602;SDS011;21725;50.836;4.368;2024-03-17T01:44:25;7.82;;;3.50;;
35602;SDS011;21725;50.836;4.368;2024-03-17T01:47:28;8.15;;;5.30;;
35602;SDS011;21725;50.836;4.368;2024-03-17T01:50:33;14.07;;;4.60;;
35602;SDS011;21725;50.836;4.368;2024-03-17T01:53:36;7.05;;;3.58;;
35602;SDS011;21725;50.836;4.368;2024-03-17T01:56:40;13.32;;;5.03;;
35602;SDS011;21725;50.836;4.368;2024-03-17T01:59:41;7.43;;;3.30;;
35602;SDS011;21725;50.836;4.368;2024-03-17T02:02:42;6.63;;;3.58;;
35602;SDS011;21725;50.836;4.368;2024-03-17T02:05:44;6.43;;;3.22;;
35602;SDS011;21725;50.836;4.368;2024-03-17T02:08:51;7.32;;;3.92;;
35602;SDS011;21725;50.836;4.368;2024-03-17T02:14:55;7.40;;;3.90;;
35602;SDS011;21725;50.836;4.368;2024-03-17T02:17:55;9.52;;;4.18;;
35602;SDS011;21725;50.836;4.368;2024-03-17T02:20:56;9.00;;;3.95;;
35602;SDS011;21725;50.836;4.368;2024-03-17T02:24:01;8.63;;;3.55;;
35602;SDS011;21725;50.836;4.368;2024-03-17T02:27:01;9.63;;;4.55;;
35602;SDS011;21725;50.836;4.368;2024-03-17T02:30:03;8.65;;;3.85;;
35602;SDS011;21725;50.836;4.368;2024-03-17T02:33:09;7.43;;;3.72;;
35602;SDS011;21725;50.836;4.368;2024-03-17T02:36:10;7.05;;;3.40;;
35602;SDS011;21725;50.836;4.368;2024-03-17T02:39:12;7.47;;;3.70;;
35602;SDS011;21725;50.836;4.368;2024-03-17T02:42:31;8.15;;;3.40;;
35602;SDS011;21725;50.836;4.368;2024-03-17T02:45:32;8.07;;;5.57;;
35602;SDS011;21725;50.836;4.368;2024-03-17T02:48:33;12.32;;;3.88;;
35602;SDS011;21725;50.836;4.368;2024-03-17T02:51:36;7.82;;;4.43;;
35602;SDS011;21725;50.836;4.368;2024-03-17T02:54:40;7.90;;;2.80;;
35602;SDS011;21725;50.836;4.368;2024-03-17T02:57:41;5.28;;;3.22;;
35602;SDS011;21725;50.836;4.368;2024-03-17T03:00:42;7.40;;;3.40;;
35602;SDS011;21725;50.836;4.368;2024-03-17T03:03:43;7.78;;;3.25;;
35602;SDS011;21725;50.836;4.368;2024-03-17T03:06:43;8.90;;;3.38;;
35602;SDS011;21725;50.836;4.368;2024-03-17T03:09:44;9.77;;;3.90;;
35602;SDS011;21725;50.836;4.368;2024-03-17T03:12:45;10.13;;;4.10;;
35602;SDS011;21725;50.836;4.368;2024-03-17T03:15:46;7.25;;;3.58;;
35602;SDS011;21725;50.836;4.368;2024-03-17T03:18:50;6.50;;;3.35;;
35602;SDS011;21725;50.836;4.368;2024-03-17T03:21:51;10.93;;;3.75;;
35602;SDS011;21725;50.836;4.368;2024-03-17T03:24:52;7.05;;;4.03;;
35602;SDS011;21725;50.836;4.368;2024-03-17T03:27:53;6.40;;;4.05;;
35602;SDS011;21725;50.836;4.368;2024-03-17T03:30:56;9.32;;;4.03;;
35602;SDS011;21725;50.836;4.368;2024-03-17T03:33:58;7.78;;;3.67;;
35602;SDS011;21725;50.836;4.368;2024-03-17T03:37:01;7.20;;;3.70;;
35602;SDS011;21725;50.836;4.368;2024-03-17T03:40:02;9.13;;;4.32;;
35602;SDS011;21725;50.836;4.368;2024-03-17T03:43:16;9.10;;;3.70;;
35602;SDS011;21725;50.836;4.368;2024-03-17T03:46:17;6.90;;;3.20;;
35602;SDS011;21725;50.836;4.368;2024-03-17T03:49:18;7.88;;;3.85;;
35602;SDS011;21725;50.836;4.368;2024-03-17T03:52:19;5.72;;;3.45;;
35602;SDS011;21725;50.836;4.368;2024-03-17T03:55:21;9.73;;;3.88;;
35602;SDS011;21725;50.836;4.368;2024-03-17T03:58:22;8.23;;;3.83;;
35602;SDS011;21725;50.836;4.368;2024-03-17T04:01:22;8.93;;;4.28;;
35602;SDS011;21725;50.836;4.368;2024-03-17T04:04:23;9.45;;;3.60;;
35602;SDS011;21725;50.836;4.368;2024-03-17T04:07:24;7.55;;;4.22;;
35602;SDS011;21725;50.836;4.368;2024-03-17T04:10:25;7.60;;;4.53;;
35602;SDS011;21725;50.836;4.368;2024-03-17T04:13:26;8.07;;;4.32;;
35602;SDS011;21725;50.836;4.368;2024-03-17T04:16:29;9.18;;;4.38;;
35602;SDS011;21725;50.836;4.368;2024-03-17T04:19:31;10.65;;;3.55;;
35602;SDS011;21725;50.836;4.368;2024-03-17T04:22:32;9.52;;;4.10;;
35602;SDS011;21725;50.836;4.368;2024-03-17T04:25:33;8.73;;;4.28;;
35602;SDS011;21725;50.836;4.368;2024-03-17T04:28:33;8.98;;;4.80;;
35602;SDS011;21725;50.836;4.368;2024-03-17T04:31:36;6.75;;;4.32;;
35602;SDS011;21725;50.836;4.368;2024-03-17T04:34:38;8.52;;;4.28;;
35602;SDS011;21725;50.836;4.368;2024-03-17T04:37:38;9.88;;;4.15;;
35602;SDS011;21725;50.836;4.368;2024-03-17T04:40:40;8.40;;;4.10;;
35602;SDS011;21725;50.836;4.368;2024-03-17T04:43:41;10.75;;;4.70;;
35602;SDS011;21725;50.836;4.368;2024-03-17T04:46:42;7.53;;;3.65;;
35602;SDS011;21725;50.836;4.368;2024-03-17T04:49:43;11.32;;;5.22;;
35602;SDS011;21725;50.836;4.368;2024-03-17T04:52:44;8.05;;;4.90;;
35602;SDS011;21725;50.836;4.368;2024-03-17T04:55:45;9.93;;;5.40;;
35602;SDS011;21725;50.836;4.368;2024-03-17T04:58:46;7.88;;;4.03;;
35602;SDS011;21725;50.836;4.368;2024-03-17T05:01:47;7.22;;;3.83;;
35602;SDS011;21725;50.836;4.368;2024-03-17T05:04:51;11.90;;;5.35;;
35602;SDS011;21725;50.836;4.368;2024-03-17T05:07:51;9.85;;;4.15;;
35602;SDS011;21725;50.836;4.368;2024-03-17T05:10:59;10.73;;;4.43;;
35602;SDS011;21725;50.836;4.368;2024-03-17T05:14:01;9.93;;;4.35;;
35602;SDS011;21725;50.836;4.368;2024-03-17T05:17:01;9.45;;;4.93;;
35602;SDS011;21725;50.836;4.368;2024-03-17T05:20:02;13.55;;;4.18;;
35602;SDS011;21725;50.836;4.368;2024-03-17T05:23:03;8.77;;;4.00;;
35602;SDS011;21725;50.836;4.368;2024-03-17T05:26:04;6.53;;;3.83;;
35602;SDS011;21725;50.836;4.368;2024-03-17T05:29:05;9.82;;;4.40;;
35602;SDS011;21725;50.836;4.368;2024-03-17T05:32:06;16.00;;;4.28;;
35602;SDS011;21725;50.836;4.368;2024-03-17T05:35:07;7.55;;;4.05;;
35602;SDS011;21725;50.836;4.368;2024-03-17T05:38:07;9.95;;;4.55;;
35602;SDS011;21725;50.836;4.368;2024-03-17T05:41:10;10.32;;;5.13;;
35602;SDS011;21725;50.836;4.368;2024-03-17T05:44:11;8.50;;;3.88;;
35602;SDS011;21725;50.836;4.368;2024-03-17T05:47:11;6.88;;;3.90;;
35602;SDS011;21725;50.836;4.368;2024-03-17T05:50:12;9.27;;;4.10;;
35602;SDS011;21725;50.836;4.368;2024-03-17T05:53:13;7.43;;;3.88;;
35602;SDS011;21725;50.836;4.368;2024-03-17T05:56:14;8.07;;;3.65;;
35602;SDS011;21725;50.836;4.368;2024-03-17T05:59:18;7.20;;;4.03;;
35602;SDS011;21725;50.836;4.368;2024-03-17T06:02:19;8.05;;;4.22;;
35602;SDS011;21725;50.836;4.368;2024-03-17T06:05:20;8.80;;;4.18;;
35602;SDS011;21725;50.836;4.368;2024-03-17T06:08:20;9.80;;;4.35;;
35602;SDS011;21725;50.836;4.368;2024-03-17T06:11:21;8.40;;;4.50;;
35602;SDS011;21725;50.836;4.368;2024-03-17T06:14:22;13.65;;;4.05;;
35602;SDS011;21725;50.836;4.368;2024-03-17T06:17:23;7.93;;;4.25;;
35602;SDS011;21725;50.836;4.368;2024-03-17T06:20:24;8.38;;;3.85;;
35602;SDS011;21725;50.836;4.368;2024-03-17T06:23:28;7.82;;;3.45;;
35602;SDS011;21725;50.836;4.368;2024-03-17T06:26:29;6.93;;;3.88;;
35602;SDS011;21725;50.836;4.368;2024-03-17T06:29:33;7.85;;;4.10;;
35602;SDS011;21725;50.836;4.368;2024-03-17T06:32:34;7.03;;;3.80;;
35602;SDS011;21725;50.836;4.368;2024-03-17T06:35:36;7.13;;;3.20;;
35602;SDS011;21725;50.836;4.368;2024-03-17T06:38:37;13.43;;;4.20;;
35602;SDS011;21725;50.836;4.368;2024-03-17T06:41:37;9.50;;;3.42;;
35602;SDS011;21725;50.836;4.368;2024-03-17T06:44:38;17.58;;;3.78;;
35602;SDS011;21725;50.836;4.368;2024-03-17T06:47:42;6.50;;;3.58;;
35602;SDS011;21725;50.836;4.368;2024-03-17T06:50:44;9.77;;;4.03;;
35602;SDS011;21725;50.836;4.368;2024-03-17T06:53:44;8.23;;;2.85;;
35602;SDS011;21725;50.836;4.368;2024-03-17T06:56:45;6.80;;;3.53;;
35602;SDS011;21725;50.836;4.368;2024-03-17T06:59:46;8.40;;;3.35;;
35602;SDS011;21725;50.836;4.368;2024-03-17T07:02:49;6.63;;;3.60;;
35602;SDS011;21725;50.836;4.368;2024-03-17T07:05:55;6.65;;;3.72;;
35602;SDS011;21725;50.836;4.368;2024-03-17T07:08:58;8.43;;;3.42;;
35602;SDS011;21725;50.836;4.368;2024-03-17T07:11:58;7.35;;;3.40;;
35602;SDS011;21725;50.836;4.368;2024-03-17T07:14:59;6.15;;;2.97;;
35602;SDS011;21725;50.836;4.368;2024-03-17T07:18:00;8.23;;;3.10;;
35602;SDS011;21725;50.836;4.368;2024-03-17T07:21:01;8.88;;;3.80;;
35602;SDS011;21725;50.836;4.368;2024-03-17T07:24:06;9.80;;;3.85;;
35602;SDS011;21725;50.836;4.368;2024-03-17T07:27:06;10.68;;;4.68;;
35602;SDS011;21725;50.836;4.368;2024-03-17T07:30:12;6.93;;;3.53;;
35602;SDS011;21725;50.836;4.368;2024-03-17T07:33:13;5.60;;;3.53;;
35602;SDS011;21725;50.836;4.368;2024-03-17T07:36:14;8.45;;;4.30;;
35602;SDS011;21725;50.836;4.368;2024-03-17T07:39:15;6.53;;;3.05;;
35602;SDS011;21725;50.836;4.368;2024-03-17T07:42:16;7.78;;;2.95;;
35602;SDS011;21725;50.836;4.368;2024-03-17T07:45:17;8.10;;;3.70;;
35602;SDS011;21725;50.836;4.368;2024-03-17T07:48:18;7.43;;;4.03;;
35602;SDS011;21725;50.836;4.368;2024-03-17T07:51:19;6.50;;;3.63;;
35602;SDS011;21725;50.836;4.368;2024-03-17T07:54:21;6.63;;;3.28;;
35602;SDS011;21725;50.836;4.368;2024-03-17T07:57:22;8.38;;;3.72;;
35602;SDS011;21725;50.836;4.368;2024-03-17T08:00:22;7.22;;;3.58;;
35602;SDS011;21725;50.836;4.368;2024-03-17T08:03:23;8.05;;;3.15;;
35602;SDS011;21725;50.836;4.368;2024-03-17T08:06:24;7.55;;;4.18;;
35602;SDS011;21725;50.836;4.368;2024-03-17T08:09:28;9.25;;;3.83;;
35602;SDS011;21725;50.836;4.368;2024-03-17T08:12:29;6.70;;;3.60;;
35602;SDS011;21725;50.836;4.368;2024-03-17T08:15:33;9.60;;;3.92;;
35602;SDS011;21725;50.836;4.368;2024-03-17T08:18:34;8.93;;;4.00;;
35602;SDS011;21725;50.836;4.368;2024-03-17T08:21:35;6.82;;;3.47;;
35602;SDS011;21725;50.836;4.368;2024-03-17T08:24:36;12.95;;;3.83;;
35602;SDS011;21725;50.836;4.368;2024-03-17T08:27:36;9.18;;;3.20;;
35602;SDS011;21725;50.836;4.368;2024-03-17T08:30:37;10.75;;;3.40;;
35602;SDS011;21725;50.836;4.368;2024-03-17T08:33:38;6.53;;;3.05;;
35602;SDS011;21725;50.836;4.368;2024-03-17T08:36:38;7.75;;;3.45;;
35602;SDS011;21725;50.836;4.368;2024-03-17T08:39:42;6.57;;;2.60;;
35602;SDS011;21725;50.836;4.368;2024-03-17T08:42:43;7.25;;;4.30;;
35602;SDS011;21725;50.836;4.368;2024-03-17T08:45:43;6.65;;;2.75;;
35602;SDS011;21725;50.836;4.368;2024-03-17T08:48:44;5.03;;;3.03;;
35602;SDS011;21725;50.836;4.368;2024-03-17T08:51:45;8.55;;;3.38;;
35602;SDS011;21725;50.836;4.368;2024-03-17T08:54:49;5.10;;;2.85;;
35602;SDS011;21725;50.836;4.368;2024-03-17T08:57:53;7.97;;;3.50;;
35602;SDS011;21725;50.836;4.368;2024-03-17T09:00:53;7.30;;;3.00;;
35602;SDS011;21725;50.836;4.368;2024-03-17T09:03:54;7.00;;;3.33;;
35602;SDS011;21725;50.836;4.368;2024-03-17T09:06:56;6.43;;;2.95;;
35602;SDS011;21725;50.836;4.368;2024-03-17T09:09:57;5.68;;;3.35;;
35602;SDS011;21725;50.836;4.368;2024-03-17T09:12:59;6.38;;;3.10;;
35602;SDS011;21725;50.836;4.368;2024-03-17T09:16:00;7.07;;;2.97;;
35602;SDS011;21725;50.836;4.368;2024-03-17T09:19:01;7.00;;;3.00;;
35602;SDS011;21725;50.836;4.368;2024-03-17T09:22:01;10.60;;;3.20;;
35602;SDS011;21725;50.836;4.368;2024-03-17T09:25:04;10.00;;;3.42;;
35602;SDS011;21725;50.836;4.368;2024-03-17T09:28:07;5.72;;;2.88;;
35602;SDS011;21725;50.836;4.368;2024-03-17T09:31:07;10.32;;;3.50;;
35602;SDS011;21725;50.836;4.368;2024-03-17T09:34:11;8.70;;;3.30;;
35602;SDS011;21725;50.836;4.368;2024-03-17T09:37:11;7.63;;;2.90;;
35602;SDS011;21725;50.836;4.368;2024-03-17T09:40:15;6.97;;;3.60;;
35602;SDS011;21725;50.836;4.368;2024-03-17T09:43:16;8.00;;;3.05;;
35602;SDS011;21725;50.836;4.368;2024-03-17T09:46:17;8.70;;;3.97;;
35602;SDS011;21725;50.836;4.368;2024-03-17T09:49:19;11.55;;;3.60;;
35602;SDS011;21725;50.836;4.368;2024-03-17T09:52:23;7.45;;;3.42;;
35602;SDS011;21725;50.836;4.368;2024-03-17T09:55:26;9.20;;;3.33;;
35602;SDS011;21725;50.836;4.368;2024-03-17T09:58:26;8.38;;;3.40;;
35602;SDS011;21725;50.836;4.368;2024-03-17T10:01:27;12.90;;;3.85;;
35602;SDS011;21725;50.836;4.368;2024-03-17T10:04:32;8.43;;;3.67;;
35602;SDS011;21725;50.836;4.368;2024-03-17T10:07:40;6.25;;;3.60;;
35602;SDS011;21725;50.836;4.368;2024-03-17T10:10:41;7.43;;;2.70;;
35602;SDS011;21725;50.836;4.368;2024-03-17T10:13:42;5.72;;;2.72;;
35602;SDS011;21725;50.836;4.368;2024-03-17T10:16:47;7.60;;;3.85;;
35602;SDS011;21725;50.836;4.368;2024-03-17T10:19:47;6.80;;;2.85;;
35602;SDS011;21725;50.836;4.368;2024-03-17T10:23:04;5.65;;;2.95;;
35602;SDS011;21725;50.836;4.368;2024-03-17T10:26:12;7.50;;;3.63;;
35602;SDS011;21725;50.836;4.368;2024-03-17T10:29:27;7.15;;;3.15;;
35602;SDS011;21725;50.836;4.368;2024-03-17T10:32:31;8.18;;;4.03;;
35602;SDS011;21725;50.836;4.368;2024-03-17T10:35:33;7.90;;;3.53;;
35602;SDS011;21725;50.836;4.368;2024-03-17T10:38:36;6.50;;;3.30;;
35602;SDS011;21725;50.836;4.368;2024-03-17T10:41:37;7.53;;;3.40;;
35602;SDS011;21725;50.836;4.368;2024-03-17T10:44:39;6.75;;;3.38;;
35602;SDS011;21725;50.836;4.368;2024-03-17T10:47:42;8.80;;;3.00;;
35602;SDS011;21725;50.836;4.368;2024-03-17T10:50:48;6.22;;;2.28;;
35602;SDS011;21725;50.836;4.368;2024-03-17T10:53:50;7.97;;;3.40;;
35602;SDS011;21725;50.836;4.368;2024-03-17T10:56:55;6.93;;;3.15;;
35602;SDS011;21725;50.836;4.368;2024-03-17T11:00:17;6.30;;;2.20;;
35602;SDS011;21725;50.836;4.368;2024-03-17T11:03:22;8.98;;;3.20;;
35602;SDS011;21725;50.836;4.368;2024-03-17T11:06:23;7.78;;;3.67;;
35602;SDS011;21725;50.836;4.368;2024-03-17T11:09:24;5.45;;;3.03;;
35602;SDS011;21725;50.836;4.368;2024-03-17T11:12:59;9.75;;;3.55;;
35602;SDS011;21725;50.836;4.368;2024-03-17T11:15:56;6.90;;;3.05;;
35602;SDS011;21725;50.836;4.368;2024-03-17T11:19:07;6.83;;;3.00;;
35602;SDS011;21725;50.836;4.368;2024-03-17T11:25:51;16.05;;;3.33;;
35602;SDS011;21725;50.836;4.368;2024-03-17T11:28:52;9.63;;;3.20;;
35602;SDS011;21725;50.836;4.368;2024-03-17T11:31:53;9.60;;;3.08;;
35602;SDS011;21725;50.836;4.368;2024-03-17T11:35:12;6.55;;;2.85;;
35602;SDS011;21725;50.836;4.368;2024-03-17T11:38:50;3.88;;;2.15;;
35602;SDS011;21725;50.836;4.368;2024-03-17T11:41:52;9.40;;;3.55;;
35602;SDS011;21725;50.836;4.368;2024-03-17T11:45:01;6.93;;;3.42;;
35602;SDS011;21725;50.836;4.368;2024-03-17T11:48:08;7.72;;;2.10;;
35602;SDS011;21725;50.836;4.368;2024-03-17T11:51:15;5.68;;;2.75;;
35602;SDS011;21725;50.836;4.368;2024-03-17T11:54:16;9.07;;;2.17;;
35602;SDS011;21725;50.836;4.368;2024-03-17T11:57:27;5.68;;;2.35;;
35602;SDS011;21725;50.836;4.368;2024-03-17T12:00:28;6.82;;;2.42;;
35602;SDS011;21725;50.836;4.368;2024-03-17T12:03:29;8.18;;;2.70;;
35602;SDS011;21725;50.836;4.368;2024-03-17T12:06:30;4.22;;;2.00;;
35602;SDS011;21725;50.836;4.368;2024-03-17T12:09:31;8.23;;;2.38;;
35602;SDS011;21725;50.836;4.368;2024-03-17T12:12:33;7.63;;;2.30;;
35602;SDS011;21725;50.836;4.368;2024-03-17T12:15:37;9.82;;;3.30;;
35602;SDS011;21725;50.836;4.368;2024-03-17T12:18:38;6.88;;;2.88;;
35602;SDS011;21725;50.836;4.368;2024-03-17T12:21:46;6.47;;;2.85;;
35602;SDS011;21725;50.836;4.368;2024-03-17T12:24:50;5.65;;;1.77;;
35602;SDS011;21725;50.836;4.368;2024-03-17T12:27:54;8.30;;;2.25;;
35602;SDS011;21725;50.836;4.368;2024-03-17T12:30:55;6.97;;;2.25;;
35602;SDS011;21725;50.836;4.368;2024-03-17T12:33:59;7.82;;;2.03;;
35602;SDS011;21725;50.836;4.368;2024-03-17T12:37:00;6.05;;;1.95;;
35602;SDS011;21725;50.836;4.368;2024-03-17T12:40:01;6.97;;;2.97;;
35602;SDS011;21725;50.836;4.368;2024-03-17T12:43:02;5.13;;;2.00;;
35602;SDS011;21725;50.836;4.368;2024-03-17T12:46:05;9.05;;;3.00;;
35602;SDS011;21725;50.836;4.368;2024-03-17T12:49:14;9.37;;;2.10;;
35602;SDS011;21725;50.836;4.368;2024-03-17T12:52:24;19.23;;;2.78;;
35602;SDS011;21725;50.836;4.368;2024-03-17T12:55:29;5.60;;;1.95;;
35602;SDS011;21725;50.836;4.368;2024-03-17T12:58:48;6.78;;;1.85;;
35602;SDS011;21725;50.836;4.368;2024-03-17T13:05:14;9.20;;;2.35;;
35602;SDS011;21725;50.836;4.368;2024-03-17T13:08:17;8.05;;;3.08;;
35602;SDS011;21725;50.836;4.368;2024-03-17T13:11:18;6.05;;;2.53;;
35602;SDS011;21725;50.836;4.368;2024-03-17T13:14:19;7.80;;;2.55;;
35602;SDS011;21725;50.836;4.368;2024-03-17T13:17:19;4.55;;;1.85;;
35602;SDS011;21725;50.836;4.368;2024-03-17T13:20:20;6.60;;;2.42;;
35602;SDS011;21725;50.836;4.368;2024-03-17T13:23:27;6.80;;;2.30;;
35602;SDS011;21725;50.836;4.368;2024-03-17T13:26:53;8.90;;;2.35;;
35602;SDS011;21725;50.836;4.368;2024-03-17T13:29:56;5.30;;;1.95;;
35602;SDS011;21725;50.836;4.368;2024-03-17T13:32:57;4.47;;;1.55;;
35602;SDS011;21725;50.836;4.368;2024-03-17T13:36:00;8.27;;;2.28;;
35602;SDS011;21725;50.836;4.368;2024-03-17T13:39:01;5.22;;;1.90;;
35602;SDS011;21725;50.836;4.368;2024-03-17T13:42:02;4.78;;;1.63;;
35602;SDS011;21725;50.836;4.368;2024-03-17T13:45:03;4.50;;;1.60;;
35602;SDS011;21725;50.836;4.368;2024-03-17T13:48:06;4.63;;;1.90;;
35602;SDS011;21725;50.836;4.368;2024-03-17T13:51:10;9.30;;;1.95;;
35602;SDS011;21725;50.836;4.368;2024-03-17T13:54:11;7.20;;;2.17;;
35602;SDS011;21725;50.836;4.368;2024-03-17T13:57:12;7.20;;;2.60;;
35602;SDS011;21725;50.836;4.368;2024-03-17T14:00:13;3.45;;;1.67;;
35602;SDS011;21725;50.836;4.368;2024-03-17T14:03:17;6.03;;;1.70;;
35602;SDS011;21725;50.836;4.368;2024-03-17T14:06:17;11.65;;;2.58;;
35602;SDS011;21725;50.836;4.368;2024-03-17T14:09:19;6.72;;;2.33;;
35602;SDS011;21725;50.836;4.368;2024-03-17T14:12:20;3.83;;;1.65;;
35602;SDS011;21725;50.836;4.368;2024-03-17T14:15:20;5.88;;;2.20;;
35602;SDS011;21725;50.836;4.368;2024-03-17T14:18:21;8.68;;;2.33;;
35602;SDS011;21725;50.836;4.368;2024-03-17T14:21:22;8.27;;;2.40;;
35602;SDS011;21725;50.836;4.368;2024-03-17T14:24:23;7.45;;;2.63;;
35602;SDS011;21725;50.836;4.368;2024-03-17T14:27:24;7.57;;;1.90;;
35602;SDS011;21725;50.836;4.368;2024-03-17T14:30:27;8.55;;;3.30;;
35602;SDS011;21725;50.836;4.368;2024-03-17T14:33:28;5.13;;;1.52;;
35602;SDS011;21725;50.836;4.368;2024-03-17T14:36:32;4.75;;;2.22;;
35602;SDS011;21725;50.836;4.368;2024-03-17T14:39:33;7.13;;;2.38;;
35602;SDS011;21725;50.836;4.368;2024-03-17T14:42:34;4.15;;;2.00;;
35602;SDS011;21725;50.836;4.368;2024-03-17T14:45:34;7.95;;;2.50;;
35602;SDS011;21725;50.836;4.368;2024-03-17T14:48:35;9.13;;;2.40;;
35602;SDS011;21725;50.836;4.368;2024-03-17T14:51:36;7.47;;;2.35;;
35602;SDS011;21725;50.836;4.368;2024-03-17T14:54:38;6.60;;;2.20;;
35602;SDS011;21725;50.836;4.368;2024-03-17T14:57:40;5.75;;;2.33;;
35602;SDS011;21725;50.836;4.368;2024-03-17T15:00:41;5.80;;;2.42;;
35602;SDS011;21725;50.836;4.368;2024-03-17T15:03:42;3.58;;;1.73;;
35602;SDS011;21725;50.836;4.368;2024-03-17T15:06:44;10.65;;;2.20;;
35602;SDS011;21725;50.836;4.368;2024-03-17T15:09:45;5.63;;;1.80;;
35602;SDS011;21725;50.836;4.368;2024-03-17T15:12:48;9.82;;;3.03;;
35602;SDS011;21725;50.836;4.368;2024-03-17T15:15:49;8.60;;;2.58;;
35602;SDS011;21725;50.836;4.368;2024-03-17T15:18:50;4.82;;;1.98;;
35602;SDS011;21725;50.836;4.368;2024-03-17T15:21:51;8.02;;;1.90;;
35602;SDS011;21725;50.836;4.368;2024-03-17T15:24:53;5.72;;;1.90;;
35602;SDS011;21725;50.836;4.368;2024-03-17T15:27:53;5.93;;;2.10;;
35602;SDS011;21725;50.836;4.368;2024-03-17T15:30:54;6.80;;;1.75;;
35602;SDS011;21725;50.836;4.368;2024-03-17T15:33:55;3.72;;;1.65;;
35602;SDS011;21725;50.836;4.368;2024-03-17T15:36:57;7.78;;;2.78;;
35602;SDS011;21725;50.836;4.368;2024-03-17T15:39:57;6.22;;;2.30;;
35602;SDS011;21725;50.836;4.368;2024-03-17T15:42:59;5.32;;;1.85;;
35602;SDS011;21725;50.836;4.368;2024-03-17T15:46:00;8.10;;;2.67;;
35602;SDS011;21725;50.836;4.368;2024-03-17T15:49:01;4.22;;;1.88;;
35602;SDS011;21725;50.836;4.368;2024-03-17T15:52:03;4.82;;;2.00;;
35602;SDS011;21725;50.836;4.368;2024-03-17T15:55:05;8.23;;;2.42;;
35602;SDS011;21725;50.836;4.368;2024-03-17T15:58:06;4.80;;;1.70;;
35602;SDS011;21725;50.836;4.368;2024-03-17T16:01:07;6.78;;;2.90;;
35602;SDS011;21725;50.836;4.368;2024-03-17T16:04:10;4.90;;;1.85;;
35602;SDS011;21725;50.836;4.368;2024-03-17T16:07:11;7.90;;;2.83;;
35602;SDS011;21725;50.836;4.368;2024-03-17T16:10:16;8.60;;;2.75;;
35602;SDS011;21725;50.836;4.368;2024-03-17T16:13:19;12.45;;;4.45;;
35602;SDS011;21725;50.836;4.368;2024-03-17T16:16:26;8.75;;;2.63;;
35602;SDS011;21725;50.836;4.368;2024-03-17T16:19:29;7.82;;;2.17;;
35602;SDS011;21725;50.836;4.368;2024-03-17T16:22:33;7.13;;;2.35;;
35602;SDS011;21725;50.836;4.368;2024-03-17T16:25:35;7.35;;;1.92;;
35602;SDS011;21725;50.836;4.368;2024-03-17T16:28:36;8.35;;;2.20;;
35602;SDS011;21725;50.836;4.368;2024-03-17T16:31:38;6.53;;;2.30;;
35602;SDS011;21725;50.836;4.368;2024-03-17T16:34:40;5.72;;;2.25;;
35602;SDS011;21725;50.836;4.368;2024-03-17T16:37:41;6.93;;;2.22;;
35602;SDS011;21725;50.836;4.368;2024-03-17T16:40:42;3.47;;;2.00;;
35602;SDS011;21725;50.836;4.368;2024-03-17T16:43:53;6.75;;;2.13;;
35602;SDS011;21725;50.836;4.368;2024-03-17T16:50:06;4.78;;;2.53;;
35602;SDS011;21725;50.836;4.368;2024-03-17T16:53:08;5.22;;;2.60;;
35602;SDS011;21725;50.836;4.368;2024-03-17T16:56:09;6.18;;;1.80;;
35602;SDS011;21725;50.836;4.368;2024-03-17T16:59:10;4.15;;;1.80;;
35602;SDS011;21725;50.836;4.368;2024-03-17T17:02:15;8.20;;;2.58;;
35602;SDS011;21725;50.836;4.368;2024-03-17T17:05:17;8.77;;;3.30;;
35602;SDS011;21725;50.836;4.368;2024-03-17T17:08:18;6.32;;;2.58;;
35602;SDS011;21725;50.836;4.368;2024-03-17T17:11:19;6.38;;;2.38;;
35602;SDS011;21725;50.836;4.368;2024-03-17T17:14:19;7.20;;;2.63;;
35602;SDS011;21725;50.836;4.368;2024-03-17T17:17:22;10.02;;;3.22;;
35602;SDS011;21725;50.836;4.368;2024-03-17T17:20:23;6.57;;;2.50;;
35602;SDS011;21725;50.836;4.368;2024-03-17T17:23:25;6.95;;;3.00;;
35602;SDS011;21725;50.836;4.368;2024-03-17T17:26:27;10.77;;;3.85;;
35602;SDS011;21725;50.836;4.368;2024-03-17T17:29:34;6.03;;;2.22;;
35602;SDS011;21725;50.836;4.368;2024-03-17T17:32:35;7.22;;;2.75;;
35602;SDS011;21725;50.836;4.368;2024-03-17T17:35:36;8.18;;;3.35;;
35602;SDS011;21725;50.836;4.368;2024-03-17T17:38:37;11.75;;;3.58;;
35602;SDS011;21725;50.836;4.368;2024-03-17T17:41:38;6.18;;;3.20;;
35602;SDS011;21725;50.836;4.368;2024-03-17T17:44:42;8.27;;;2.80;;
35602;SDS011;21725;50.836;4.368;2024-03-17T17:47:42;6.20;;;2.80;;
35602;SDS011;21725;50.836;4.368;2024-03-17T17:50:43;7.85;;;3.03;;
35602;SDS011;21725;50.836;4.368;2024-03-17T17:53:45;11.82;;;4.35;;
35602;SDS011;21725;50.836;4.368;2024-03-17T17:56:47;8.88;;;3.75;;
35602;SDS011;21725;50.836;4.368;2024-03-17T17:59:48;12.00;;;3.42;;
35602;SDS011;21725;50.836;4.368;2024-03-17T18:02:48;9.50;;;2.92;;
35602;SDS011;21725;50.836;4.368;2024-03-17T18:05:49;9.77;;;3.45;;
35602;SDS011;21725;50.836;4.368;2024-03-17T18:08:50;7.50;;;3.00;;
35602;SDS011;21725;50.836;4.368;2024-03-17T18:11:51;7.25;;;2.92;;
35602;SDS011;21725;50.836;4.368;2024-03-17T18:14:51;15.10;;;4.00;;
35602;SDS011;21725;50.836;4.368;2024-03-17T18:17:52;8.50;;;3.70;;
35602;SDS011;21725;50.836;4.368;2024-03-17T18:20:54;8.27;;;3.67;;
35602;SDS011;21725;50.836;4.368;2024-03-17T18:23:56;11.48;;;5.07;;
35602;SDS011;21725;50.836;4.368;2024-03-17T18:26:57;8.70;;;3.42;;
35602;SDS011;21725;50.836;4.368;2024-03-17T18:29:57;6.63;;;3.55;;